Time;durP1;ratioP1;P1;durP2;ratioP2;P2;SDS_P1;SDS_P2;PMS_P1;PMS_P2;Temp;Humidity;BMP_temperature;BMP_pressure;BME280_temperature;BME280_humidity;BME280_pressure;Samples;Min_cycle;Max_cycle;Signal;HPM_P1;HPM_P2
2023/08/20 00:00:52;;;;;;;8.10;2.70;;;;;;;21.50;76.90;99197.88;4882374;29;20109;-76
2023/08/20 00:03:36;;;;;;;13.40;2.90;;;;;;;21.57;76.89;99203.00;4891390;29;20100;-78
2023/08/20 00:06:22;;;;;;;10.00;2.85;;;;;;;21.61;76.76;99200.56;4885463;29;20124;-77
2023/08/20 00:09:08;;;;;;;11.73;2.70;;;;;;;21.57;77.08;99199.50;4892504;29;20087;-77
2023/08/20 00:11:52;;;;;;;10.07;3.45;;;;;;;21.38;77.41;99197.31;4884805;29;20040;-77
2023/08/20 00:14:54;;;;;;;11.35;2.80;;;;;;;21.37;77.61;99201.03;4884470;29;20436;-77
2023/08/20 00:17:41;;;;;;;11.75;3.00;;;;;;;21.24;78.23;99197.81;4889196;29;20096;-78
2023/08/20 00:20:25;;;;;;;12.13;2.88;;;;;;;21.26;78.25;99203.69;4887335;29;20059;-77
2023/08/20 00:23:10;;;;;;;11.25;3.00;;;;;;;21.24;78.71;99203.16;4889211;29;20201;-77
2023/08/20 00:25:54;;;;;;;14.15;3.55;;;;;;;21.17;78.98;99207.91;4887253;29;20051;-77
2023/08/20 00:28:38;;;;;;;10.10;2.90;;;;;;;21.07;79.75;99207.88;4887740;29;20553;-77
2023/08/20 00:31:22;;;;;;;13.45;3.15;;;;;;;21.24;79.58;99205.81;4885468;29;20040;-77
2023/08/20 00:34:06;;;;;;;13.25;3.10;;;;;;;21.20;79.74;99206.59;4887276;29;20525;-77
2023/08/20 00:36:50;;;;;;;6.68;2.80;;;;;;;21.29;79.47;99209.56;4882917;29;20611;-78
2023/08/20 00:39:34;;;;;;;7.20;3.28;;;;;;;21.06;80.51;99200.94;4887006;29;20096;-77
2023/08/20 00:42:18;;;;;;;9.63;3.33;;;;;;;21.19;80.02;99207.66;4889169;29;20563;-77
2023/08/20 00:45:03;;;;;;;7.47;2.80;;;;;;;21.28;79.83;99215.97;4885534;29;20517;-77
2023/08/20 00:47:48;;;;;;;9.18;3.08;;;;;;;21.23;79.48;99222.09;4890698;29;20121;-78
2023/08/20 00:50:33;;;;;;;9.63;3.05;;;;;;;21.23;80.13;99219.44;4888401;29;20116;-77
2023/08/20 00:53:17;;;;;;;11.60;2.67;;;;;;;21.19;80.03;99218.34;4890115;29;20521;-78
2023/08/20 00:56:02;;;;;;;9.77;2.95;;;;;;;21.29;79.69;99231.72;4883023;29;20099;-78
2023/08/20 00:58:46;;;;;;;11.05;3.00;;;;;;;21.15;80.11;99231.41;4884070;29;20047;-78
2023/08/20 01:01:30;;;;;;;10.23;2.95;;;;;;;21.11;80.30;99225.78;4883559;29;20403;-79
2023/08/20 01:04:13;;;;;;;;;;;;;;;21.14;80.25;99229.00;4888528;29;20043;-78
2023/08/20 01:07:01;;;;;;;10.90;2.95;;;;;;;21.12;80.52;99221.25;4883389;29;19992;-78
2023/08/20 01:09:54;;;;;;;9.30;2.80;;;;;;;21.11;80.65;99223.09;4891554;29;20068;-77
2023/08/20 01:12:39;;;;;;;8.47;3.53;;;;;;;20.83;81.97;99226.94;4886715;29;20051;-77
2023/08/20 01:15:24;;;;;;;11.07;2.92;;;;;;;21.14;81.60;99213.00;4880853;29;20052;-78
2023/08/20 01:18:08;;;;;;;9.77;2.85;;;;;;;21.07;81.54;99215.88;4881859;29;20499;-77
2023/08/20 01:20:58;;;;;;;11.27;3.47;;;;;;;21.15;82.17;99231.41;4887200;29;20071;-77
2023/08/20 01:24:05;;;;;;;14.18;3.35;;;;;;;21.02;82.18;99242.53;4883521;29;20056;-78
2023/08/20 01:27:28;;;;;;;11.00;3.50;;;;;;;21.02;81.92;99231.84;4884468;29;20100;-78
2023/08/20 01:30:12;;;;;;;11.00;3.42;;;;;;;21.04;82.02;99225.22;4882897;29;20121;-77
2023/08/20 01:32:58;;;;;;;15.77;3.65;;;;;;;21.41;81.71;99226.16;4887709;29;20118;-78
2023/08/20 01:35:42;;;;;;;9.95;3.20;;;;;;;20.92;82.66;99214.75;4886602;29;20570;-77
2023/08/20 01:38:26;;;;;;;10.00;3.45;;;;;;;21.07;82.67;99219.34;4888553;29;20132;-77
2023/08/20 01:41:10;;;;;;;11.02;3.33;;;;;;;21.19;82.79;99227.13;4889044;29;20118;-77
2023/08/20 01:43:54;;;;;;;13.43;3.65;;;;;;;21.35;82.27;99232.56;4883612;29;20047;-76
2023/08/20 01:46:38;;;;;;;15.35;3.22;;;;;;;21.32;82.05;99239.22;4879449;29;20047;-76
2023/08/20 01:49:22;;;;;;;7.57;2.83;;;;;;;21.41;82.22;99239.50;4886110;29;20088;-77
2023/08/20 01:52:06;;;;;;;14.95;3.08;;;;;;;21.38;82.49;99229.34;4883073;29;20051;-77
2023/08/20 01:54:50;;;;;;;12.77;3.55;;;;;;;21.12;82.92;99215.91;4890009;29;20039;-77
2023/08/20 01:57:34;;;;;;;16.10;3.90;;;;;;;21.36;82.88;99212.78;4884074;29;21119;-77
2023/08/20 02:00:18;;;;;;;10.38;3.65;;;;;;;21.27;82.92;99220.50;4878385;29;20173;-78
2023/08/20 02:03:03;;;;;;;16.77;3.47;;;;;;;21.15;83.62;99214.59;4885109;29;20351;-78
2023/08/20 02:05:47;;;;;;;15.13;3.17;;;;;;;21.46;82.82;99215.50;4884215;29;20088;-78
2023/08/20 02:08:31;;;;;;;20.17;3.90;;;;;;;21.63;82.25;99217.16;4881407;29;20132;-78
2023/08/20 02:11:15;;;;;;;16.73;3.53;;;;;;;21.75;81.90;99223.09;4884486;29;20047;-77
2023/08/20 02:13:59;;;;;;;16.80;4.03;;;;;;;21.42;82.53;99222.44;4886326;29;20048;-77
2023/08/20 02:16:44;;;;;;;15.55;3.33;;;;;;;21.41;82.85;99223.47;4881092;29;20047;-77
2023/08/20 02:19:28;;;;;;;13.90;3.03;;;;;;;21.24;83.54;99237.03;4882156;29;20108;-78
2023/08/20 02:22:12;;;;;;;13.00;3.30;;;;;;;21.29;83.31;99236.28;4891626;29;20518;-77
2023/08/20 02:24:56;;;;;;;14.75;3.03;;;;;;;21.25;83.96;99244.00;4885743;29;20084;-77
2023/08/20 02:27:40;;;;;;;16.27;3.85;;;;;;;21.34;83.26;99245.13;4882643;29;20069;-77
2023/08/20 02:30:23;;;;;;;9.55;3.60;;;;;;;21.48;83.02;99250.75;4886062;29;20044;-77
2023/08/20 02:33:07;;;;;;;10.18;2.95;;;;;;;21.44;83.05;99249.69;4887630;29;20104;-77
2023/08/20 02:35:51;;;;;;;12.10;3.88;;;;;;;21.61;82.16;99265.50;4884634;29;20506;-78
2023/08/20 02:38:35;;;;;;;16.83;3.60;;;;;;;21.10;83.92;99261.53;4885174;29;20104;-77
2023/08/20 02:41:19;;;;;;;10.52;3.95;;;;;;;21.08;84.04;99252.97;4883059;29;20399;-77
2023/08/20 02:44:03;;;;;;;10.15;2.85;;;;;;;21.24;83.43;99255.72;4884268;29;20051;-77
2023/08/20 02:46:47;;;;;;;11.23;3.22;;;;;;;21.25;83.66;99247.47;4881780;29;20119;-77
2023/08/20 02:49:31;;;;;;;12.65;3.42;;;;;;;21.40;83.93;99252.06;4881035;29;20506;-78
2023/08/20 02:52:15;;;;;;;10.95;3.05;;;;;;;21.22;84.08;99258.69;4885675;29;20101;-78
2023/08/20 02:54:59;;;;;;;8.45;2.92;;;;;;;21.63;83.05;99262.56;4884414;29;20498;-78
2023/08/20 02:57:43;;;;;;;16.25;3.17;;;;;;;21.48;82.78;99258.78;4885927;29;20048;-77
2023/08/20 03:00:27;;;;;;;8.38;3.65;;;;;;;21.52;83.50;99270.53;4884588;29;20112;-77
2023/08/20 03:03:12;;;;;;;12.70;3.03;;;;;;;21.31;84.06;99274.97;4883389;29;20059;-77
2023/08/20 03:05:56;;;;;;;15.10;4.50;;;;;;;21.52;83.02;99278.53;4886182;29;20092;-78
2023/08/20 03:08:40;;;;;;;12.38;3.85;;;;;;;21.43;83.71;99273.97;4880636;29;20075;-78
2023/08/20 03:11:24;;;;;;;15.95;3.72;;;;;;;21.44;82.94;99273.72;4885005;29;20048;-77
2023/08/20 03:14:07;;;;;;;15.00;3.65;;;;;;;21.32;83.71;99278.47;4884934;29;20101;-78
2023/08/20 03:16:52;;;;;;;12.20;3.20;;;;;;;21.34;83.38;99273.66;4887560;29;20458;-78
2023/08/20 03:19:35;;;;;;;10.80;3.67;;;;;;;21.09;84.60;99283.16;4884246;29;20125;-78
2023/08/20 03:22:19;;;;;;;16.13;3.70;;;;;;;21.17;84.33;99288.00;4885159;29;20056;-78
2023/08/20 03:25:05;;;;;;;14.90;4.07;;;;;;;21.26;84.42;99289.13;4889178;29;20131;-77
2023/08/20 03:27:51;;;;;;;17.13;3.45;;;;;;;20.98;85.19;99295.63;4888782;29;20119;-77
2023/08/20 03:30:36;;;;;;;12.15;4.13;;;;;;;21.01;84.67;99283.63;4886432;29;20414;-77
2023/08/20 03:33:20;;;;;;;17.10;3.72;;;;;;;21.16;84.24;99286.38;4883482;29;20383;-78
2023/08/20 03:36:04;;;;;;;13.10;3.45;;;;;;;20.96;84.52;99290.53;4888883;29;20075;-78
2023/08/20 03:38:48;;;;;;;11.50;3.65;;;;;;;20.84;84.32;99300.63;4885041;29;20136;-78
2023/08/20 03:41:32;;;;;;;14.93;3.80;;;;;;;20.67;83.76;99290.84;4887918;29;20050;-78
2023/08/20 03:44:16;;;;;;;17.65;4.25;;;;;;;20.15;86.46;99289.63;4886724;29;20544;-77
2023/08/20 03:47:00;;;;;;;14.80;3.50;;;;;;;20.34;85.64;99294.56;4887625;29;20506;-78
2023/08/20 03:49:44;;;;;;;13.25;3.72;;;;;;;20.30;86.13;99290.78;4884572;29;20104;-77
2023/08/20 03:52:28;;;;;;;11.13;3.58;;;;;;;20.28;85.85;99296.41;4881310;29;20048;-77
2023/08/20 03:55:12;;;;;;;13.43;4.03;;;;;;;20.20;85.86;99288.84;4890149;29;20051;-77
2023/08/20 03:57:56;;;;;;;20.45;4.07;;;;;;;20.08;86.73;99295.16;4889277;29;20044;-78
2023/08/20 04:00:40;;;;;;;14.93;3.88;;;;;;;20.01;88.24;99299.84;4881304;29;20093;-78
2023/08/20 04:03:24;;;;;;;14.93;3.65;;;;;;;20.08;87.69;99299.66;4884260;29;20518;-78
2023/08/20 04:06:08;;;;;;;10.88;3.40;;;;;;;19.94;88.97;99296.59;4884570;29;20044;-78
2023/08/20 04:08:52;;;;;;;14.23;4.15;;;;;;;19.99;88.19;99301.97;4883985;29;20052;-77
2023/08/20 04:11:36;;;;;;;15.88;4.90;;;;;;;19.95;88.91;99306.19;4886471;29;20097;-78
2023/08/20 04:14:20;;;;;;;10.80;3.85;;;;;;;19.82;89.90;99307.34;4883948;29;20092;-77
2023/08/20 04:17:04;;;;;;;15.75;4.00;;;;;;;20.04;88.37;99303.88;4885737;29;20048;-78
2023/08/20 04:19:48;;;;;;;13.07;3.63;;;;;;;19.91;89.11;99305.06;4885184;29;20039;-78
2023/08/20 04:22:32;;;;;;;13.32;4.05;;;;;;;19.90;89.05;99303.44;4884624;29;20044;-78
2023/08/20 04:25:16;;;;;;;12.65;3.90;;;;;;;19.86;91.07;99308.47;4845865;29;1224656;-78
2023/08/20 04:28:00;;;;;;;14.38;4.30;;;;;;;19.76;91.88;99308.34;4886772;29;20547;-78
2023/08/20 04:30:44;;;;;;;14.63;4.25;;;;;;;20.07;92.08;99314.84;4885571;29;20100;-77
2023/08/20 04:33:28;;;;;;;15.00;4.65;;;;;;;20.16;92.43;99306.41;4887367;29;20439;-78
2023/08/20 04:36:12;;;;;;;11.00;4.65;;;;;;;20.32;91.20;99305.50;4884487;29;20415;-77
2023/08/20 04:38:56;;;;;;;13.35;3.90;;;;;;;20.26;91.20;99311.84;4886300;29;20087;-78
2023/08/20 04:41:40;;;;;;;15.65;4.00;;;;;;;20.41;90.45;99317.28;4891176;29;20044;-78
2023/08/20 04:44:24;;;;;;;13.80;4.40;;;;;;;20.06;91.71;99313.25;4884410;29;20040;-78
2023/08/20 04:47:14;;;;;;;16.48;3.92;;;;;;;20.13;92.84;99313.03;4887567;29;20452;-76
2023/08/20 04:49:59;;;;;;;12.73;3.83;;;;;;;20.43;92.18;99305.56;4883062;29;20444;-76
2023/08/20 04:52:43;;;;;;;14.77;3.90;;;;;;;20.76;90.96;99309.88;4885648;29;20136;-76
2023/08/20 04:55:28;;;;;;;12.93;3.72;;;;;;;20.66;90.82;99302.59;4887261;29;20423;-76
2023/08/20 04:58:12;;;;;;;17.02;5.97;;;;;;;20.65;90.38;99308.97;4883854;29;20052;-77
2023/08/20 05:00:56;;;;;;;7.85;3.70;;;;;;;20.63;90.91;99313.75;4890525;29;20132;-77
2023/08/20 05:03:40;;;;;;;9.93;3.70;;;;;;;20.61;90.91;99307.84;4882417;29;20059;-77
2023/08/20 05:06:24;;;;;;;13.18;3.50;;;;;;;20.95;90.06;99301.50;4885024;29;20510;-77
2023/08/20 05:09:08;;;;;;;16.50;4.10;;;;;;;20.91;90.57;99303.84;4889118;29;20607;-77
2023/08/20 05:11:54;;;;;;;24.13;4.93;;;;;;;21.08;89.41;99300.22;4885066;29;20092;-78
2023/08/20 05:14:38;;;;;;;11.50;3.63;;;;;;;21.05;90.27;99301.53;4879762;29;20085;-77
2023/08/20 05:17:22;;;;;;;10.60;3.38;;;;;;;21.02;90.11;99319.91;4882394;29;20059;-77
2023/08/20 05:20:08;;;;;;;15.02;4.10;;;;;;;20.74;91.03;99309.31;4882681;29;20092;-77
2023/08/20 05:22:52;;;;;;;12.43;3.63;;;;;;;20.92;90.97;99315.31;4881962;29;20065;-77
2023/08/20 05:25:36;;;;;;;12.80;3.85;;;;;;;21.20;90.03;99319.50;4882996;29;20181;-77
2023/08/20 05:28:20;;;;;;;10.70;3.25;;;;;;;21.15;89.79;99321.34;4884759;29;20096;-77
2023/08/20 05:31:04;;;;;;;13.68;3.55;;;;;;;21.41;89.04;99324.94;4882940;29;20546;-77
2023/08/20 05:33:48;;;;;;;13.45;3.63;;;;;;;21.37;89.13;99329.22;4885883;29;20526;-77
2023/08/20 05:36:32;;;;;;;11.07;3.35;;;;;;;21.46;88.78;99324.19;4882778;29;20873;-76
2023/08/20 05:39:17;;;;;;;13.55;3.55;;;;;;;21.36;88.52;99333.75;4885415;29;20075;-78
2023/08/20 05:42:01;;;;;;;12.23;3.63;;;;;;;21.33;88.61;99326.28;4892181;29;20047;-78
2023/08/20 05:44:45;;;;;;;9.50;3.53;;;;;;;21.42;88.71;99326.59;4879272;29;20891;-78
2023/08/20 05:47:29;;;;;;;13.45;3.63;;;;;;;21.52;87.89;99337.31;4883318;29;20543;-77
2023/08/20 05:50:13;;;;;;;15.55;3.95;;;;;;;21.68;88.16;99340.88;4885202;29;20548;-77
2023/08/20 05:52:57;;;;;;;9.63;3.33;;;;;;;21.89;87.02;99342.81;4888617;29;20052;-77
2023/08/20 05:55:41;;;;;;;9.93;4.05;;;;;;;21.72;87.06;99343.03;4882898;29;20537;-77
2023/08/20 05:58:25;;;;;;;13.77;3.83;;;;;;;21.72;87.59;99354.50;4883255;29;20056;-78
2023/08/20 06:01:09;;;;;;;17.77;4.05;;;;;;;21.52;88.50;99353.31;4881967;29;20120;-78
2023/08/20 06:03:53;;;;;;;14.90;4.72;;;;;;;21.62;87.59;99346.44;4881490;29;20556;-79
2023/08/20 06:06:37;;;;;;;16.90;4.55;;;;;;;22.34;85.64;99346.66;4880630;29;20092;-77
2023/08/20 06:09:21;;;;;;;19.63;4.22;;;;;;;22.00;86.61;99365.03;4878716;29;20515;-79
2023/08/20 06:12:05;;;;;;;14.10;3.78;;;;;;;22.24;86.12;99362.72;4882561;29;20566;-79
2023/08/20 06:14:49;;;;;;;15.18;4.43;;;;;;;22.43;85.71;99365.66;4877657;29;20044;-79
2023/08/20 06:17:33;;;;;;;8.35;3.08;;;;;;;22.60;84.95;99357.44;4878313;29;20096;-79
2023/08/20 06:20:18;;;;;;;16.38;3.90;;;;;;;22.61;85.11;99351.03;4883034;29;20065;-79
2023/08/20 06:23:02;;;;;;;16.77;4.00;;;;;;;22.57;85.03;99354.50;4883060;29;20063;-79
2023/08/20 06:25:46;;;;;;;11.95;3.92;;;;;;;22.64;84.53;99353.16;4882842;29;20410;-79
2023/08/20 06:28:30;;;;;;;7.78;3.47;;;;;;;22.49;85.38;99358.50;4881086;29;20048;-79
2023/08/20 06:31:14;;;;;;;11.90;3.92;;;;;;;22.50;84.92;99357.44;4883621;29;20052;-79
2023/08/20 06:33:58;;;;;;;11.85;4.18;;;;;;;22.42;85.47;99357.94;4882359;29;20412;-79
2023/08/20 06:36:42;;;;;;;10.60;3.90;;;;;;;22.81;84.63;99371.63;4881752;29;20040;-79
2023/08/20 06:39:27;;;;;;;12.85;4.28;;;;;;;22.63;84.73;99364.94;4878352;29;20110;-79
2023/08/20 06:42:11;;;;;;;10.48;3.70;;;;;;;22.81;84.80;99365.47;4879066;29;20052;-79
2023/08/20 06:44:55;;;;;;;13.57;4.05;;;;;;;23.15;83.63;99374.81;4881818;29;20056;-80
2023/08/20 06:47:39;;;;;;;10.73;3.72;;;;;;;23.16;83.51;99365.72;4881344;29;20129;-80
2023/08/20 06:50:23;;;;;;;8.45;3.70;;;;;;;23.10;83.39;99373.75;4883719;29;20067;-80
2023/08/20 06:53:07;;;;;;;12.48;3.67;;;;;;;23.08;83.47;99389.25;4882759;29;20048;-81
2023/08/20 06:55:51;;;;;;;11.18;3.90;;;;;;;22.87;84.09;99375.09;4882718;29;20445;-80
2023/08/20 06:58:35;;;;;;;18.95;4.50;;;;;;;22.92;84.03;99393.81;4883570;29;20050;-81
2023/08/20 07:01:20;;;;;;;14.90;4.18;;;;;;;22.66;84.83;99390.34;4879326;29;20559;-80
2023/08/20 07:04:04;;;;;;;9.93;3.70;;;;;;;22.82;85.11;99393.84;4884417;29;20104;-81
2023/08/20 07:06:48;;;;;;;10.55;4.13;;;;;;;23.04;84.22;99396.22;4881049;29;20046;-81
2023/08/20 07:09:32;;;;;;;9.05;3.90;;;;;;;23.01;84.03;99398.66;4882609;29;20036;-81
2023/08/20 07:12:16;;;;;;;14.35;3.67;;;;;;;23.04;84.30;99395.44;4886113;29;20047;-80
2023/08/20 07:15:00;;;;;;;10.45;3.55;;;;;;;23.02;84.11;99402.94;4882214;29;20039;-81
2023/08/20 07:17:44;;;;;;;11.45;4.68;;;;;;;23.38;83.32;99394.88;4881442;29;20051;-82
2023/08/20 07:20:28;;;;;;;14.05;3.97;;;;;;;23.35;82.66;99390.06;4879325;29;20040;-83
2023/08/20 07:23:14;;;;;;;13.05;3.50;;;;;;;23.46;82.33;99397.03;4881195;29;20056;-84
2023/08/20 07:26:11;;;;;;;11.85;3.40;;;;;;;23.45;82.23;99402.63;4884452;29;20056;-84
2023/08/20 07:28:56;;;;;;;12.93;3.55;;;;;;;23.62;81.83;99403.13;4883579;29;20117;-84
2023/08/20 07:31:40;;;;;;;12.93;3.53;;;;;;;24.02;81.49;99415.88;4887504;29;20544;-84
2023/08/20 07:34:24;;;;;;;10.45;3.95;;;;;;;23.88;81.49;99418.31;4879735;29;20056;-83
2023/08/20 07:37:08;;;;;;;10.65;3.47;;;;;;;23.53;82.28;99418.97;4880802;29;20574;-83
2023/08/20 07:39:52;;;;;;;11.75;3.53;;;;;;;23.94;82.21;99417.22;4885099;29;20088;-83
2023/08/20 07:42:36;;;;;;;9.15;3.33;;;;;;;23.92;81.64;99420.19;4878821;29;20044;-82
2023/08/20 07:45:20;;;;;;;12.88;4.05;;;;;;;23.92;81.39;99425.56;4885366;29;20067;-83
2023/08/20 07:48:05;;;;;;;11.60;3.90;;;;;;;24.09;81.35;99425.25;4884411;29;20048;-83
2023/08/20 07:50:49;;;;;;;9.15;3.63;;;;;;;24.16;80.73;99418.75;4876991;29;20551;-83
2023/08/20 07:53:33;;;;;;;12.45;3.60;;;;;;;24.05;80.73;99432.22;4883607;29;20055;-83
2023/08/20 07:56:18;;;;;;;7.60;3.35;;;;;;;24.25;80.64;99431.31;4876725;29;20123;-83
2023/08/20 07:59:02;;;;;;;9.75;3.67;;;;;;;23.85;81.35;99430.38;4882870;29;20061;-82
2023/08/20 08:01:46;;;;;;;17.30;4.25;;;;;;;23.76;81.20;99443.53;4885059;29;20042;-82
2023/08/20 08:04:30;;;;;;;9.95;4.22;;;;;;;23.76;81.30;99446.22;4884028;29;20040;-79
2023/08/20 08:07:14;;;;;;;10.57;3.60;;;;;;;24.35;80.45;99425.09;4883224;29;20104;-79
2023/08/20 08:09:58;;;;;;;7.97;3.55;;;;;;;23.96;80.52;99436.50;4876059;29;20052;-80
2023/08/20 08:12:42;;;;;;;16.30;4.53;;;;;;;24.23;80.00;99440.75;4883711;29;20056;-78
2023/08/20 08:15:26;;;;;;;13.02;3.40;;;;;;;24.53;80.00;99438.97;4882674;29;20079;-81
2023/08/20 08:18:10;;;;;;;7.88;3.70;;;;;;;24.50;79.70;99437.66;4879622;29;20096;-82
2023/08/20 08:20:55;;;;;;;11.40;3.40;;;;;;;25.00;79.18;99433.31;4886226;29;20048;-78
2023/08/20 08:23:39;;;;;;;12.50;3.80;;;;;;;24.82;78.00;99440.94;4886946;29;20456;-79
2023/08/20 08:26:23;;;;;;;11.00;3.58;;;;;;;24.85;78.28;99459.19;4890227;29;20059;-80
2023/08/20 08:29:08;;;;;;;8.38;3.20;;;;;;;24.59;78.38;99458.50;4888139;29;20044;-79
2023/08/20 08:31:52;;;;;;;14.23;3.53;;;;;;;25.01;77.95;99459.06;4892097;29;20826;-80
2023/08/20 08:34:36;;;;;;;10.77;3.47;;;;;;;25.24;77.61;99470.94;4893333;29;20100;-83
2023/08/20 08:37:20;;;;;;;9.80;3.33;;;;;;;25.40;77.05;99468.94;4886152;29;20104;-80
2023/08/20 08:40:05;;;;;;;11.10;3.70;;;;;;;25.13;77.14;99480.19;4884054;29;20100;-80
2023/08/20 08:42:50;;;;;;;9.32;4.00;;;;;;;25.24;76.75;99481.69;4879874;29;20056;-79
2023/08/20 08:45:34;;;;;;;5.75;3.15;;;;;;;25.38;76.23;99489.94;4882771;29;20074;-81
2023/08/20 08:48:19;;;;;;;12.63;3.63;;;;;;;25.57;76.05;99486.56;4885165;29;20035;-78
2023/08/20 08:51:03;;;;;;;7.70;3.10;;;;;;;25.51;75.50;99486.59;4886647;29;20052;-80
2023/08/20 08:53:47;;;;;;;11.77;3.10;;;;;;;25.31;75.15;99486.75;4878854;29;20044;-79
2023/08/20 08:56:31;;;;;;;11.68;3.10;;;;;;;25.31;75.65;99478.69;4891033;29;20052;-82
2023/08/20 08:59:15;;;;;;;10.50;3.33;;;;;;;25.47;74.95;99477.50;4887278;29;20503;-81
2023/08/20 09:01:59;;;;;;;9.40;3.40;;;;;;;25.20;75.46;99488.72;4889546;29;20051;-81
2023/08/20 09:04:43;;;;;;;6.60;2.65;;;;;;;24.55;75.68;99495.03;4884493;29;20056;-81
2023/08/20 09:07:27;;;;;;;15.43;3.58;;;;;;;24.91;75.52;99502.91;4889284;29;20428;-82
2023/08/20 09:10:11;;;;;;;9.45;3.03;;;;;;;25.27;74.84;99493.78;4888578;29;20082;-81
2023/08/20 09:12:57;;;;;;;10.10;3.10;;;;;;;25.25;75.04;99491.38;4888180;29;20052;-81
2023/08/20 09:15:41;;;;;;;12.63;3.28;;;;;;;25.00;76.15;99511.97;4886390;29;20095;-81
2023/08/20 09:18:25;;;;;;;8.27;2.95;;;;;;;25.42;74.71;99501.72;4881735;29;20056;-82
2023/08/20 09:21:11;;;;;;;7.13;2.70;;;;;;;25.34;73.62;99499.63;4890709;29;20156;-81
2023/08/20 09:24:02;;;;;;;7.60;2.47;;;;;;;25.32;73.40;99501.78;4882450;29;20258;-82
2023/08/20 09:26:46;;;;;;;9.57;3.30;;;;;;;25.67;73.92;99498.03;4892927;29;20107;-81
2023/08/20 09:29:35;;;;;;;12.18;3.25;;;;;;;26.14;72.89;99494.00;4882831;29;20083;-82
2023/08/20 09:32:22;;;;;;;4.55;2.70;;;;;;;25.99;72.38;99501.19;4890022;29;20091;-82
2023/08/20 09:35:06;;;;;;;10.55;3.25;;;;;;;25.98;72.06;99486.13;4883169;29;20068;-83
2023/08/20 09:37:50;;;;;;;12.20;3.33;;;;;;;26.28;71.96;99491.47;4887774;29;20047;-82
2023/08/20 09:40:34;;;;;;;12.15;4.20;;;;;;;26.40;71.74;99507.97;4891414;29;20103;-82
2023/08/20 09:43:19;;;;;;;11.48;3.50;;;;;;;26.75;72.15;99507.81;4885266;29;20415;-82
2023/08/20 09:46:05;;;;;;;11.27;3.35;;;;;;;27.16;70.78;99501.81;4883388;29;20101;-81
2023/08/20 09:48:51;;;;;;;11.60;4.07;;;;;;;27.21;70.21;99504.44;4897874;29;20567;-82
2023/08/20 09:51:36;;;;;;;4.70;2.75;;;;;;;27.16;69.85;99495.63;4888761;29;20042;-82
2023/08/20 09:54:28;;;;;;;11.35;3.20;;;;;;;27.44;70.15;99487.63;4890361;29;20510;-82
2023/08/20 09:57:32;;;;;;;7.97;3.13;;;;;;;27.88;69.16;99494.38;4885407;29;20403;-81
2023/08/20 10:00:19;;;;;;;5.10;2.53;;;;;;;28.48;67.94;99489.94;4887834;29;20056;-82
2023/08/20 10:03:03;;;;;;;6.22;2.40;;;;;;;28.78;65.96;99492.28;4884690;29;20040;-82
2023/08/20 10:05:51;;;;;;;10.30;3.00;;;;;;;28.78;64.59;99486.88;4882546;29;20083;-82
2023/08/20 10:08:36;;;;;;;8.02;2.88;;;;;;;28.69;64.73;99492.19;4886677;29;20204;-82
2023/08/20 10:11:20;;;;;;;7.97;2.60;;;;;;;28.75;65.08;99482.88;4883945;29;20096;-83
2023/08/20 10:14:04;;;;;;;7.57;2.60;;;;;;;28.35;64.79;99491.59;4881611;29;20064;-83
2023/08/20 10:16:48;;;;;;;9.27;2.95;;;;;;;29.63;63.37;99486.16;4883688;29;20120;-82
2023/08/20 10:19:32;;;;;;;5.63;2.85;;;;;;;30.21;63.39;99485.41;4887797;29;20101;-82
2023/08/20 10:22:17;;;;;;;8.18;2.95;;;;;;;30.31;62.86;99487.81;4885765;29;20506;-82
2023/08/20 10:25:05;;;;;;;6.50;2.42;;;;;;;30.58;59.73;99483.22;4883997;29;20059;-82
2023/08/20 10:27:50;;;;;;;8.18;2.97;;;;;;;30.99;59.54;99485.78;4890769;29;20180;-82
2023/08/20 10:30:33;;;;;;;6.60;2.50;;;;;;;31.18;60.36;99488.94;4887258;29;20140;-82
2023/08/20 10:33:18;;;;;;;10.85;3.45;;;;;;;30.88;59.23;99477.19;4887469;29;20059;-83
2023/08/20 10:36:29;;;;;;;6.85;2.80;;;;;;;30.89;58.33;99487.72;4881297;29;20559;-82
2023/08/20 10:39:23;;;;;;;5.88;2.80;;;;;;;30.91;59.72;99485.47;4885550;29;20063;-82
2023/08/20 10:42:19;;;;;;;4.82;2.42;;;;;;;30.96;57.54;99481.81;4883530;29;20136;-82
2023/08/20 10:45:10;;;;;;;7.13;2.67;;;;;;;31.08;57.60;99497.41;4885372;29;20510;-82
2023/08/20 10:47:54;;;;;;;7.63;2.70;;;;;;;31.10;59.06;99495.19;4885971;29;20065;-82
2023/08/20 10:50:40;;;;;;;4.63;2.60;;;;;;;31.29;56.90;99494.06;4885421;29;20131;-83
2023/08/20 10:53:24;;;;;;;4.75;2.40;;;;;;;31.68;58.00;99500.31;4885100;29;20120;-82
2023/08/20 10:56:14;;;;;;;6.18;2.42;;;;;;;31.54;55.87;99500.50;4879799;29;20544;-82
2023/08/20 10:59:06;;;;;;;5.13;2.72;;;;;;;31.71;55.80;99501.56;4887196;29;20060;-82
2023/08/20 11:01:52;;;;;;;5.38;2.90;;;;;;;31.56;55.31;99502.91;4884672;29;20056;-82
2023/08/20 11:04:38;;;;;;;5.18;2.80;;;;;;;29.97;55.68;99499.31;4881908;29;20103;-82
2023/08/20 11:07:25;;;;;;;8.35;3.25;;;;;;;30.27;57.96;99505.81;4883591;29;20100;-82
2023/08/20 11:10:10;;;;;;;5.15;2.85;;;;;;;30.52;57.68;99495.34;4888164;29;20044;-83
2023/08/20 11:12:55;;;;;;;5.70;2.90;;;;;;;31.02;55.95;99488.66;4887028;29;20411;-83
2023/08/20 11:15:39;;;;;;;8.48;3.00;;;;;;;31.31;55.51;99497.22;4881445;29;20472;-82
2023/08/20 11:18:25;;;;;;;10.65;2.78;;;;;;;31.65;56.12;99490.09;4885524;29;20051;-82
2023/08/20 11:21:09;;;;;;;7.78;3.05;;;;;;;31.33;55.36;99497.69;4887096;29;20080;-82
2023/08/20 11:23:55;;;;;;;4.60;2.70;;;;;;;31.34;55.43;99502.00;4883723;29;20121;-81
2023/08/20 11:26:40;;;;;;;7.43;3.10;;;;;;;30.07;56.11;99496.38;4887973;29;20083;-82
2023/08/20 11:29:26;;;;;;;8.75;2.90;;;;;;;30.75;56.21;99490.56;4886140;29;20039;-82
2023/08/20 11:32:10;;;;;;;5.68;2.58;;;;;;;31.28;54.79;99500.59;4885078;29;20040;-82
2023/08/20 11:34:55;;;;;;;5.70;2.97;;;;;;;30.99;54.73;99489.28;4890345;29;20043;-82
2023/08/20 11:37:40;;;;;;;6.25;3.45;;;;;;;30.43;55.05;99486.38;4889792;29;20159;-82
2023/08/20 11:40:24;;;;;;;4.25;3.20;;;;;;;30.96;55.42;99479.09;4892200;29;20044;-82
2023/08/20 11:43:09;;;;;;;5.22;2.90;;;;;;;31.31;54.43;99491.81;4891194;29;20438;-82
2023/08/20 11:45:54;;;;;;;7.40;2.97;;;;;;;31.10;54.11;99481.63;4889667;29;20120;-82
2023/08/20 11:48:38;;;;;;;5.18;2.70;;;;;;;31.03;55.40;99481.28;4885421;29;20060;-83
2023/08/20 11:51:22;;;;;;;6.43;2.80;;;;;;;31.02;55.70;99485.13;4886987;29;20043;-83
2023/08/20 11:54:07;;;;;;;9.27;3.40;;;;;;;30.37;53.72;99483.06;4888818;29;20199;-82
2023/08/20 11:56:52;;;;;;;4.18;2.72;;;;;;;31.06;53.93;99488.81;4889632;29;20127;-81
2023/08/20 11:59:36;;;;;;;7.95;3.80;;;;;;;31.38;52.81;99492.09;4889688;29;20498;-83
2023/08/20 12:02:27;;;;;;;6.97;3.53;;;;;;;31.53;52.66;99489.97;4884927;29;20538;-82
2023/08/20 12:05:12;;;;;;;3.97;3.13;;;;;;;30.82;53.33;99481.97;4889847;29;20444;-83
2023/08/20 12:08:01;;;;;;;4.18;2.65;;;;;;;29.86;54.21;99480.69;4884582;29;20100;-82
2023/08/20 12:10:46;;;;;;;4.95;3.10;;;;;;;29.67;54.00;99480.91;4890039;29;20056;-82
2023/08/20 12:13:30;;;;;;;7.75;2.92;;;;;;;29.75;54.30;99480.16;4885788;29;20040;-82
2023/08/20 12:16:14;;;;;;;5.15;2.40;;;;;;;29.85;55.23;99472.88;4890727;29;20075;-82
2023/08/20 12:18:58;;;;;;;5.70;2.65;;;;;;;30.25;54.24;99480.94;4890327;29;20043;-82
2023/08/20 12:21:43;;;;;;;5.70;2.53;;;;;;;30.26;54.03;99481.75;4885849;29;20039;-83
2023/08/20 12:24:26;;;;;;;4.57;2.40;;;;;;;30.94;52.99;99478.59;4884408;29;20513;-84
2023/08/20 12:27:10;;;;;;;3.78;2.47;;;;;;;31.27;51.72;99496.28;4889732;29;20052;-84
2023/08/20 12:29:54;;;;;;;5.82;2.85;;;;;;;30.51;51.82;99488.31;4889924;29;20064;-83
2023/08/20 12:32:38;;;;;;;4.22;2.50;;;;;;;30.68;53.53;99465.09;4901458;29;20435;-84
2023/08/20 12:35:23;;;;;;;4.30;2.53;;;;;;;30.67;53.29;99471.63;4884073;29;20047;-83
2023/08/20 12:38:07;;;;;;;5.03;2.78;;;;;;;29.90;51.17;99480.84;4887884;29;20781;-84
2023/08/20 12:40:51;;;;;;;4.22;2.70;;;;;;;29.82;52.15;99473.50;4886602;29;20055;-84
2023/08/20 12:43:35;;;;;;;5.03;2.80;;;;;;;30.72;54.12;99476.88;4887686;29;20055;-84
2023/08/20 12:46:20;;;;;;;4.03;2.83;;;;;;;31.40;53.54;99486.38;4885394;29;20039;-84
2023/08/20 12:49:05;;;;;;;6.32;2.95;;;;;;;31.08;53.76;99489.28;4886650;29;20117;-85
2023/08/20 12:51:49;;;;;;;4.95;3.22;;;;;;;31.01;54.32;99486.25;4888085;29;20048;-84